sensor_id;sensor_type;location;lat;lon;timestamp;pressure;altitude;pressure_sealevel;temperature;humidity
17260;BME280;8746;49.230;9.220;2023-03-15T00:00:52;99600.72;;;1.88;100.00
17260;BME280;8746;49.230;9.220;2023-03-15T00:03:19;99609.38;;;1.94;100.00
17260;BME280;8746;49.230;9.220;2023-03-15T00:05:46;99618.91;;;1.93;100.00
17260;BME280;8746;49.230;9.220;2023-03-15T00:08:13;99627.53;;;1.98;100.00
17260;BME280;8746;49.230;9.220;2023-03-15T00:10:40;99626.53;;;2.10;100.00
17260;BME280;8746;49.230;9.220;2023-03-15T00:13:06;99634.34;;;2.08;100.00
17260;BME280;8746;49.230;9.220;2023-03-15T00:15:31;99636.13;;;2.05;100.00
17260;BME280;8746;49.230;9.220;2023-03-15T00:17:56;99648.22;;;2.11;100.00
17260;BME280;8746;49.230;9.220;2023-03-15T00:20:22;99645.63;;;2.11;100.00
17260;BME280;8746;49.230;9.220;2023-03-15T00:22:47;99649.97;;;2.08;100.00
17260;BME280;8746;49.230;9.220;2023-03-15T00:25:12;99649.97;;;2.08;100.00
17260;BME280;8746;49.230;9.220;2023-03-15T00:27:38;99658.53;;;2.20;100.00
17260;BME280;8746;49.230;9.220;2023-03-15T00:30:03;99650.84;;;2.07;100.00
17260;BME280;8746;49.230;9.220;2023-03-15T00:32:29;99660.34;;;2.12;100.00
17260;BME280;8746;49.230;9.220;2023-03-15T00:34:56;99660.41;;;2.05;100.00
17260;BME280;8746;49.230;9.220;2023-03-15T00:37:21;99663.97;;;1.97;100.00
17260;BME280;8746;49.230;9.220;2023-03-15T00:39:50;99662.22;;;1.97;100.00
17260;BME280;8746;49.230;9.220;2023-03-15T00:42:15;99670.88;;;1.99;100.00
17260;BME280;8746;49.230;9.220;2023-03-15T00:44:42;99673.41;;;2.07;100.00
17260;BME280;8746;49.230;9.220;2023-03-15T00:47:12;99677.75;;;2.05;100.00
17260;BME280;8746;49.230;9.220;2023-03-15T00:49:38;99677.75;;;2.06;100.00
17260;BME280;8746;49.230;9.220;2023-03-15T00:52:04;99681.25;;;2.02;100.00
17260;BME280;8746;49.230;9.220;2023-03-15T00:54:30;99681.28;;;1.99;100.00
17260;BME280;8746;49.230;9.220;2023-03-15T00:57:00;99683.06;;;1.94;100.00
17260;BME280;8746;49.230;9.220;2023-03-15T00:59:27;99689.97;;;1.98;100.00
17260;BME280;8746;49.230;9.220;2023-03-15T01:01:53;99696.94;;;1.93;100.00
17260;BME280;8746;49.230;9.220;2023-03-15T01:04:18;99698.72;;;1.91;100.00
17260;BME280;8746;49.230;9.220;2023-03-15T01:06:43;99693.44;;;1.96;100.00
17260;BME280;8746;49.230;9.220;2023-03-15T01:09:09;99691.81;;;1.85;100.00
17260;BME280;8746;49.230;9.220;2023-03-15T01:11:34;99690.06;;;1.87;100.00
17260;BME280;8746;49.230;9.220;2023-03-15T01:14:00;99693.56;;;1.85;100.00
17260;BME280;8746;49.230;9.220;2023-03-15T01:16:28;99696.19;;;1.79;100.00
17260;BME280;8746;49.230;9.220;2023-03-15T01:18:53;99701.44;;;1.75;100.00
17260;BME280;8746;49.230;9.220;2023-03-15T01:21:19;99704.03;;;1.77;100.00
17260;BME280;8746;49.230;9.220;2023-03-15T01:23:45;99710.13;;;1.73;100.00
17260;BME280;8746;49.230;9.220;2023-03-15T01:26:13;99707.56;;;1.71;100.00
17260;BME280;8746;49.230;9.220;2023-03-15T01:28:39;99713.63;;;1.67;100.00
17260;BME280;8746;49.230;9.220;2023-03-15T01:31:05;99712.81;;;1.59;100.00
17260;BME280;8746;49.230;9.220;2023-03-15T01:33:30;99712.81;;;1.60;100.00
17260;BME280;8746;49.230;9.220;2023-03-15T01:36:06;99730.19;;;1.57;100.00
17260;BME280;8746;49.230;9.220;2023-03-15T01:38:32;99731.09;;;1.50;100.00
17260;BME280;8746;49.230;9.220;2023-03-15T01:40:57;99732.91;;;1.37;100.00
17260;BME280;8746;49.230;9.220;2023-03-15T01:43:25;99726.84;;;1.36;100.00
17260;BME280;8746;49.230;9.220;2023-03-15T01:48:48;99745.09;;;1.22;100.00
17260;BME280;8746;49.230;9.220;2023-03-15T01:51:20;99752.84;;;1.35;100.00
17260;BME280;8746;49.230;9.220;2023-03-15T01:53:52;99751.13;;;1.34;100.00
17260;BME280;8746;49.230;9.220;2023-03-15T01:56:19;99751.97;;;1.34;100.00
17260;BME280;8746;49.230;9.220;2023-03-15T01:58:47;99761.50;;;1.35;100.00
17260;BME280;8746;49.230;9.220;2023-03-15T02:01:14;99759.75;;;1.36;100.00
17260;BME280;8746;49.230;9.220;2023-03-15T02:03:42;99759.81;;;1.28;100.00
17260;BME280;8746;49.230;9.220;2023-03-15T02:06:18;99759.84;;;1.22;100.00
17260;BME280;8746;49.230;9.220;2023-03-15T02:08:56;99765.09;;;1.14;100.00
17260;BME280;8746;49.230;9.220;2023-03-15T02:11:25;99770.28;;;1.09;100.00
17260;BME280;8746;49.230;9.220;2023-03-15T02:13:53;99772.00;;;1.14;100.00
17260;BME280;8746;49.230;9.220;2023-03-15T02:16:20;99770.28;;;1.06;100.00
17260;BME280;8746;49.230;9.220;2023-03-15T02:18:46;99771.19;;;0.98;100.00
17260;BME280;8746;49.230;9.220;2023-03-15T02:24:24;99772.09;;;0.89;100.00
17260;BME280;8746;49.230;9.220;2023-03-15T02:26:54;99770.38;;;0.88;100.00
17260;BME280;8746;49.230;9.220;2023-03-15T02:29:21;99765.22;;;0.85;100.00
17260;BME280;8746;49.230;9.220;2023-03-15T02:31:48;99771.28;;;0.73;100.00
17260;BME280;8746;49.230;9.220;2023-03-15T02:34:13;99777.34;;;0.67;100.00
17260;BME280;8746;49.230;9.220;2023-03-15T02:36:39;99778.25;;;0.63;100.00
17260;BME280;8746;49.230;9.220;2023-03-15T02:39:15;99783.44;;;0.66;100.00
17260;BME280;8746;49.230;9.220;2023-03-15T02:41:43;99788.63;;;0.60;100.00
17260;BME280;8746;49.230;9.220;2023-03-15T02:44:22;99791.22;;;0.60;100.00
17260;BME280;8746;49.230;9.220;2023-03-15T02:46:50;99802.47;;;0.65;100.00
17260;BME280;8746;49.230;9.220;2023-03-15T02:49:17;99812.84;;;0.57;100.00
17260;BME280;8746;49.230;9.220;2023-03-15T02:51:45;99812.88;;;0.46;100.00
17260;BME280;8746;49.230;9.220;2023-03-15T02:54:11;99819.81;;;0.38;100.00
17260;BME280;8746;49.230;9.220;2023-03-15T02:56:36;99825.88;;;0.53;100.00
17260;BME280;8746;49.230;9.220;2023-03-15T02:59:02;99837.09;;;0.62;100.00
17260;BME280;8746;49.230;9.220;2023-03-15T03:01:27;99843.97;;;0.79;100.00
17260;BME280;8746;49.230;9.220;2023-03-15T03:03:53;99850.03;;;0.79;100.00
17260;BME280;8746;49.230;9.220;2023-03-15T03:06:18;99856.13;;;0.78;100.00
17260;BME280;8746;49.230;9.220;2023-03-15T03:08:44;99860.44;;;0.67;100.00
17260;BME280;8746;49.230;9.220;2023-03-15T03:11:13;99864.75;;;0.74;100.00
17260;BME280;8746;49.230;9.220;2023-03-15T03:13:40;99861.28;;;0.82;100.00
17260;BME280;8746;49.230;9.220;2023-03-15T03:16:06;99867.34;;;0.80;100.00
17260;BME280;8746;49.230;9.220;2023-03-15T03:18:32;99863.03;;;0.83;100.00
17260;BME280;8746;49.230;9.220;2023-03-15T03:21:02;99871.66;;;0.94;100.00
17260;BME280;8746;49.230;9.220;2023-03-15T03:23:29;99878.59;;;0.87;100.00
17260;BME280;8746;49.230;9.220;2023-03-15T03:25:56;99878.59;;;0.89;100.00
17260;BME280;8746;49.230;9.220;2023-03-15T03:28:23;99882.94;;;0.94;100.00
17260;BME280;8746;49.230;9.220;2023-03-15T03:30:50;99882.91;;;0.93;100.00
17260;BME280;8746;49.230;9.220;2023-03-15T03:33:15;99889.84;;;0.89;100.00
17260;BME280;8746;49.230;9.220;2023-03-15T03:35:41;99888.13;;;0.87;100.00
17260;BME280;8746;49.230;9.220;2023-03-15T03:38:08;99896.78;;;0.89;100.00
17260;BME280;8746;49.230;9.220;2023-03-15T03:40:33;99904.56;;;0.84;100.00
17260;BME280;8746;49.230;9.220;2023-03-15T03:42:59;99901.13;;;0.71;100.00
17260;BME280;8746;49.230;9.220;2023-03-15T03:45:27;99910.66;;;0.78;100.00
17260;BME280;8746;49.230;9.220;2023-03-15T03:47:52;99915.81;;;0.77;100.00
17260;BME280;8746;49.230;9.220;2023-03-15T03:50:17;99916.69;;;0.70;100.00
17260;BME280;8746;49.230;9.220;2023-03-15T03:52:43;99922.75;;;0.61;100.00
17260;BME280;8746;49.230;9.220;2023-03-15T03:55:09;99927.09;;;0.54;100.00
17260;BME280;8746;49.230;9.220;2023-03-15T03:57:38;99925.34;;;0.59;100.00
17260;BME280;8746;49.230;9.220;2023-03-15T04:00:04;99929.69;;;0.53;100.00
17260;BME280;8746;49.230;9.220;2023-03-15T04:02:29;99943.53;;;0.45;100.00
17260;BME280;8746;49.230;9.220;2023-03-15T04:04:55;99941.78;;;0.41;100.00
17260;BME280;8746;49.230;9.220;2023-03-15T04:07:20;99944.38;;;0.38;100.00
17260;BME280;8746;49.230;9.220;2023-03-15T04:09:46;99941.78;;;0.46;100.00
17260;BME280;8746;49.230;9.220;2023-03-15T04:12:11;99944.38;;;0.46;100.00
17260;BME280;8746;49.230;9.220;2023-03-15T04:14:37;99947.84;;;0.39;100.00
17260;BME280;8746;49.230;9.220;2023-03-15T04:17:02;99949.56;;;0.34;100.00
17260;BME280;8746;49.230;9.220;2023-03-15T04:19:28;99955.59;;;0.34;100.00
17260;BME280;8746;49.230;9.220;2023-03-15T04:21:53;99954.75;;;0.40;100.00
17260;BME280;8746;49.230;9.220;2023-03-15T04:24:18;99956.50;;;0.41;100.00
17260;BME280;8746;49.230;9.220;2023-03-15T04:26:44;99946.13;;;0.35;100.00
17260;BME280;8746;49.230;9.220;2023-03-15T04:29:09;99961.66;;;0.31;100.00
17260;BME280;8746;49.230;9.220;2023-03-15T04:31:36;99965.13;;;0.29;100.00
17260;BME280;8746;49.230;9.220;2023-03-15T04:34:02;99970.28;;;0.18;100.00
17260;BME280;8746;49.230;9.220;2023-03-15T04:36:28;99972.91;;;0.29;100.00
17260;BME280;8746;49.230;9.220;2023-03-15T04:38:53;99981.53;;;0.23;100.00
17260;BME280;8746;49.230;9.220;2023-03-15T04:41:29;99978.94;;;0.12;100.00
17260;BME280;8746;49.230;9.220;2023-03-15T04:43:55;99979.78;;;0.11;100.00
17260;BME280;8746;49.230;9.220;2023-03-15T04:46:20;99973.69;;;-0.02;100.00
17260;BME280;8746;49.230;9.220;2023-03-15T04:48:45;99973.69;;;-0.05;100.00
17260;BME280;8746;49.230;9.220;2023-03-15T04:51:11;99974.56;;;0.02;100.00
17260;BME280;8746;49.230;9.220;2023-03-15T04:53:36;99978.00;;;0.01;100.00
17260;BME280;8746;49.230;9.220;2023-03-15T04:56:04;99975.41;;;-0.01;100.00
17260;BME280;8746;49.230;9.220;2023-03-15T04:58:29;99971.97;;;0.04;100.00
17260;BME280;8746;49.230;9.220;2023-03-15T05:00:55;99970.25;;;0.12;100.00
17260;BME280;8746;49.230;9.220;2023-03-15T05:03:20;99972.00;;;0.14;100.00
17260;BME280;8746;49.230;9.220;2023-03-15T05:05:45;99970.25;;;0.13;100.00
17260;BME280;8746;49.230;9.220;2023-03-15T05:08:11;99969.41;;;0.14;100.00
17260;BME280;8746;49.230;9.220;2023-03-15T05:10:36;99976.34;;;0.14;100.00
17260;BME280;8746;49.230;9.220;2023-03-15T05:13:01;99979.78;;;0.07;100.00
17260;BME280;8746;49.230;9.220;2023-03-15T05:15:27;99978.00;;;-0.02;100.00
17260;BME280;8746;49.230;9.220;2023-03-15T05:17:52;99983.19;;;-0.08;100.00
17260;BME280;8746;49.230;9.220;2023-03-15T05:20:20;99974.53;;;-0.04;100.00
17260;BME280;8746;49.230;9.220;2023-03-15T05:22:46;99978.84;;;-0.09;100.00
17260;BME280;8746;49.230;9.220;2023-03-15T05:25:11;99981.41;;;-0.14;100.00
17260;BME280;8746;49.230;9.220;2023-03-15T05:27:37;99981.41;;;-0.14;100.00
17260;BME280;8746;49.230;9.220;2023-03-15T05:30:04;99987.47;;;-0.09;100.00
17260;BME280;8746;49.230;9.220;2023-03-15T05:32:30;99990.00;;;-0.26;100.00
17260;BME280;8746;49.230;9.220;2023-03-15T05:35:01;99989.19;;;-0.19;100.00
17260;BME280;8746;49.230;9.220;2023-03-15T05:37:27;99991.75;;;-0.19;100.00
17260;BME280;8746;49.230;9.220;2023-03-15T05:39:52;99993.44;;;-0.28;100.00
17260;BME280;8746;49.230;9.220;2023-03-15T05:42:17;99997.75;;;-0.34;100.00
17260;BME280;8746;49.230;9.220;2023-03-15T05:44:49;100006.44;;;-0.25;100.00
17260;BME280;8746;49.230;9.220;2023-03-15T05:47:15;100002.13;;;-0.19;100.00
17260;BME280;8746;49.230;9.220;2023-03-15T05:49:40;100015.97;;;-0.23;100.00
17260;BME280;8746;49.230;9.220;2023-03-15T05:52:05;100011.63;;;-0.22;100.00
17260;BME280;8746;49.230;9.220;2023-03-15T05:54:31;100018.56;;;-0.20;100.00
17260;BME280;8746;49.230;9.220;2023-03-15T05:56:56;100020.31;;;-0.17;100.00
17260;BME280;8746;49.230;9.220;2023-03-15T05:59:21;100021.16;;;-0.23;100.00
17260;BME280;8746;49.230;9.220;2023-03-15T06:01:47;100022.03;;;-0.21;100.00
17260;BME280;8746;49.230;9.220;2023-03-15T06:04:12;100022.03;;;-0.18;100.00
17260;BME280;8746;49.230;9.220;2023-03-15T06:06:37;100022.06;;;-0.11;100.00
17260;BME280;8746;49.230;9.220;2023-03-15T06:09:03;100028.19;;;0.00;100.00
17260;BME280;8746;49.230;9.220;2023-03-15T06:11:28;100026.47;;;0.08;100.00
17260;BME280;8746;49.230;9.220;2023-03-15T06:13:53;100025.63;;;0.15;100.00
17260;BME280;8746;49.230;9.220;2023-03-15T06:16:19;100025.66;;;0.20;100.00
17260;BME280;8746;49.230;9.220;2023-03-15T06:18:45;100021.31;;;0.27;100.00
17260;BME280;8746;49.230;9.220;2023-03-15T06:21:10;100020.50;;;0.29;100.00
17260;BME280;8746;49.230;9.220;2023-03-15T06:23:35;100025.72;;;0.42;100.00
17260;BME280;8746;49.230;9.220;2023-03-15T06:26:01;100028.31;;;0.50;100.00
17260;BME280;8746;49.230;9.220;2023-03-15T06:28:26;100036.13;;;0.59;100.00
17260;BME280;8746;49.230;9.220;2023-03-15T06:30:51;100044.81;;;0.69;100.00
17260;BME280;8746;49.230;9.220;2023-03-15T06:33:17;100050.03;;;0.81;100.00
17260;BME280;8746;49.230;9.220;2023-03-15T06:35:42;100049.16;;;0.93;100.00
17260;BME280;8746;49.230;9.220;2023-03-15T06:38:07;100049.16;;;1.15;100.00
17260;BME280;8746;49.230;9.220;2023-03-15T06:40:33;100051.78;;;1.18;100.00
17260;BME280;8746;49.230;9.220;2023-03-15T06:42:59;100056.94;;;1.38;100.00
17260;BME280;8746;49.230;9.220;2023-03-15T06:45:29;100052.59;;;1.48;100.00
17260;BME280;8746;49.230;9.220;2023-03-15T06:47:55;100032.66;;;1.53;100.00
17260;BME280;8746;49.230;9.220;2023-03-15T06:50:21;100054.34;;;1.44;100.00
17260;BME280;8746;49.230;9.220;2023-03-15T06:52:46;100052.63;;;1.44;100.00
17260;BME280;8746;49.230;9.220;2023-03-15T06:55:11;100043.06;;;1.57;100.00
17260;BME280;8746;49.230;9.220;2023-03-15T06:57:42;100043.03;;;1.78;100.00
17260;BME280;8746;49.230;9.220;2023-03-15T07:00:08;100048.19;;;1.95;100.00
17260;BME280;8746;49.230;9.220;2023-03-15T07:02:35;100057.66;;;2.06;100.00
17260;BME280;8746;49.230;9.220;2023-03-15T07:05:02;100055.84;;;2.30;100.00
17260;BME280;8746;49.230;9.220;2023-03-15T07:07:28;100057.59;;;2.25;99.83
17260;BME280;8746;49.230;9.220;2023-03-15T07:09:53;100058.56;;;2.07;99.08
17260;BME280;8746;49.230;9.220;2023-03-15T07:12:19;100062.91;;;1.94;100.00
17260;BME280;8746;49.230;9.220;2023-03-15T07:14:44;100059.44;;;1.98;100.00
17260;BME280;8746;49.230;9.220;2023-03-15T07:17:10;100062.03;;;2.01;100.00
17260;BME280;8746;49.230;9.220;2023-03-15T07:19:36;100064.63;;;2.04;100.00
17260;BME280;8746;49.230;9.220;2023-03-15T07:22:01;100057.56;;;2.33;100.00
17260;BME280;8746;49.230;9.220;2023-03-15T07:24:27;100054.06;;;2.42;100.00
17260;BME280;8746;49.230;9.220;2023-03-15T07:26:53;100054.81;;;2.59;100.00
17260;BME280;8746;49.230;9.220;2023-03-15T07:29:21;100055.75;;;2.50;96.86
17260;BME280;8746;49.230;9.220;2023-03-15T07:31:47;100059.16;;;2.63;97.02
17260;BME280;8746;49.230;9.220;2023-03-15T07:34:12;100069.56;;;2.63;98.31
17260;BME280;8746;49.230;9.220;2023-03-15T07:36:38;100068.72;;;2.61;98.32
17260;BME280;8746;49.230;9.220;2023-03-15T07:39:03;100070.44;;;2.62;97.99
17260;BME280;8746;49.230;9.220;2023-03-15T07:41:29;100074.00;;;2.46;99.04
17260;BME280;8746;49.230;9.220;2023-03-15T07:43:55;100080.13;;;2.32;97.15
17260;BME280;8746;49.230;9.220;2023-03-15T07:46:20;100085.34;;;2.26;97.02
17260;BME280;8746;49.230;9.220;2023-03-15T07:48:46;100084.44;;;2.35;96.55
17260;BME280;8746;49.230;9.220;2023-03-15T07:51:11;100088.75;;;2.47;97.92
17260;BME280;8746;49.230;9.220;2023-03-15T07:53:37;100087.81;;;2.60;97.77
17260;BME280;8746;49.230;9.220;2023-03-15T07:56:02;100085.16;;;2.69;95.48
17260;BME280;8746;49.230;9.220;2023-03-15T07:58:28;100090.41;;;2.63;95.29
17260;BME280;8746;49.230;9.220;2023-03-15T08:00:54;100085.97;;;2.81;95.78
17260;BME280;8746;49.230;9.220;2023-03-15T08:03:20;100079.81;;;2.91;95.32
17260;BME280;8746;49.230;9.220;2023-03-15T08:05:46;100075.28;;;3.16;95.31
17260;BME280;8746;49.230;9.220;2023-03-15T08:08:11;100069.38;;;2.97;93.01
17260;BME280;8746;49.230;9.220;2023-03-15T08:10:37;100072.69;;;3.15;93.12
17260;BME280;8746;49.230;9.220;2023-03-15T08:13:02;100076.81;;;3.42;93.53
17260;BME280;8746;49.230;9.220;2023-03-15T08:15:27;100083.91;;;3.26;92.49
17260;BME280;8746;49.230;9.220;2023-03-15T08:17:53;100082.91;;;3.43;91.34
17260;BME280;8746;49.230;9.220;2023-03-15T08:20:18;100092.59;;;3.25;90.46
17260;BME280;8746;49.230;9.220;2023-03-15T08:22:47;100098.63;;;3.36;90.78
17260;BME280;8746;49.230;9.220;2023-03-15T08:25:15;100097.56;;;3.56;89.58
17260;BME280;8746;49.230;9.220;2023-03-15T08:27:41;100102.06;;;3.37;90.11
17260;BME280;8746;49.230;9.220;2023-03-15T08:30:11;100107.34;;;3.29;89.98
17260;BME280;8746;49.230;9.220;2023-03-15T08:32:45;100105.41;;;3.53;90.45
17260;BME280;8746;49.230;9.220;2023-03-15T08:35:11;100109.63;;;3.68;90.84
17260;BME280;8746;49.230;9.220;2023-03-15T08:37:38;100103.88;;;3.27;88.04
17260;BME280;8746;49.230;9.220;2023-03-15T08:40:04;100112.59;;;3.26;88.76
17260;BME280;8746;49.230;9.220;2023-03-15T08:42:34;100106.34;;;3.46;89.41
17260;BME280;8746;49.230;9.220;2023-03-15T08:44:59;100112.28;;;3.62;89.59
17260;BME280;8746;49.230;9.220;2023-03-15T08:47:26;100108.59;;;3.84;87.92
17260;BME280;8746;49.230;9.220;2023-03-15T08:49:52;100115.78;;;3.59;87.41
17260;BME280;8746;49.230;9.220;2023-03-15T08:52:20;100119.84;;;3.93;89.21
17260;BME280;8746;49.230;9.220;2023-03-15T08:54:47;100126.66;;;4.06;87.92
17260;BME280;8746;49.230;9.220;2023-03-15T08:57:12;100119.03;;;3.84;87.91
17260;BME280;8746;49.230;9.220;2023-03-15T08:59:38;100126.09;;;3.75;88.25
17260;BME280;8746;49.230;9.220;2023-03-15T09:02:03;100129.41;;;3.92;88.16
17260;BME280;8746;49.230;9.220;2023-03-15T09:04:29;100133.19;;;3.57;83.41
17260;BME280;8746;49.230;9.220;2023-03-15T09:06:55;100124.63;;;3.44;81.97
17260;BME280;8746;49.230;9.220;2023-03-15T09:09:20;100124.44;;;3.64;82.55
17260;BME280;8746;49.230;9.220;2023-03-15T09:11:46;100120.75;;;3.87;83.45
17260;BME280;8746;49.230;9.220;2023-03-15T09:14:11;100129.34;;;3.98;84.01
17260;BME280;8746;49.230;9.220;2023-03-15T09:16:36;100127.47;;;4.11;83.31
17260;BME280;8746;49.230;9.220;2023-03-15T09:19:02;100139.69;;;4.08;83.22
17260;BME280;8746;49.230;9.220;2023-03-15T09:21:28;100140.41;;;4.24;81.11
17260;BME280;8746;49.230;9.220;2023-03-15T09:23:53;100140.31;;;4.30;79.50
17260;BME280;8746;49.230;9.220;2023-03-15T09:26:18;100129.72;;;4.42;78.68
17260;BME280;8746;49.230;9.220;2023-03-15T09:28:44;100126.34;;;4.34;77.51
17260;BME280;8746;49.230;9.220;2023-03-15T09:31:09;100126.53;;;4.19;76.70
17260;BME280;8746;49.230;9.220;2023-03-15T09:33:35;100130.88;;;4.18;77.54
17260;BME280;8746;49.230;9.220;2023-03-15T09:36:01;100136.06;;;4.21;78.18
17260;BME280;8746;49.230;9.220;2023-03-15T09:38:26;100133.31;;;4.33;77.23
17260;BME280;8746;49.230;9.220;2023-03-15T09:40:56;100129.84;;;4.31;77.25
17260;BME280;8746;49.230;9.220;2023-03-15T09:46:32;100151.31;;;3.74;82.79
17260;BME280;8746;49.230;9.220;2023-03-15T09:49:16;100156.66;;;3.60;84.66
17260;BME280;8746;49.230;9.220;2023-03-15T09:51:56;100167.38;;;3.20;87.72
17260;BME280;8746;49.230;9.220;2023-03-15T09:54:50;100172.59;;;3.20;89.77
17260;BME280;8746;49.230;9.220;2023-03-15T09:57:23;100171.63;;;3.36;89.65
17260;BME280;8746;49.230;9.220;2023-03-15T09:59:51;100167.03;;;3.66;91.82
17260;BME280;8746;49.230;9.220;2023-03-15T10:02:22;100166.09;;;3.75;91.58
17260;BME280;8746;49.230;9.220;2023-03-15T10:04:53;100175.84;;;3.53;89.99
17260;BME280;8746;49.230;9.220;2023-03-15T10:07:20;100172.44;;;3.43;89.51
17260;BME280;8746;49.230;9.220;2023-03-15T10:09:45;100169.91;;;3.35;89.57
17260;BME280;8746;49.230;9.220;2023-03-15T10:12:14;100171.81;;;3.05;89.80
17260;BME280;8746;49.230;9.220;2023-03-15T10:20:23;100172.69;;;3.04;91.30
17260;BME280;8746;49.230;9.220;2023-03-15T10:22:59;100172.63;;;3.18;91.60
17260;BME280;8746;49.230;9.220;2023-03-15T10:25:29;100167.34;;;3.26;91.19
17260;BME280;8746;49.230;9.220;2023-03-15T10:30:24;100169.72;;;3.57;92.82
17260;BME280;8746;49.230;9.220;2023-03-15T10:33:00;100164.31;;;3.79;92.72
17260;BME280;8746;49.230;9.220;2023-03-15T10:35:27;100163.47;;;3.77;87.93
17260;BME280;8746;49.230;9.220;2023-03-15T10:37:52;100176.63;;;3.64;89.85
17260;BME280;8746;49.230;9.220;2023-03-15T10:40:38;100184.59;;;3.44;89.47
17260;BME280;8746;49.230;9.220;2023-03-15T10:45:46;100187.28;;;3.33;91.58
17260;BME280;8746;49.230;9.220;2023-03-15T10:48:11;100179.56;;;3.19;92.41
17260;BME280;8746;49.230;9.220;2023-03-15T10:50:37;100183.13;;;3.06;93.83
17260;BME280;8746;49.230;9.220;2023-03-15T10:53:09;100182.28;;;2.95;95.04
17260;BME280;8746;49.230;9.220;2023-03-15T10:55:40;100184.91;;;2.88;95.58
17260;BME280;8746;49.230;9.220;2023-03-15T10:58:20;100188.34;;;3.01;95.25
17260;BME280;8746;49.230;9.220;2023-03-15T11:00:51;100187.38;;;3.21;94.73
17260;BME280;8746;49.230;9.220;2023-03-15T11:03:21;100190.00;;;3.16;95.03
17260;BME280;8746;49.230;9.220;2023-03-15T11:05:52;100185.69;;;3.12;95.19
17260;BME280;8746;49.230;9.220;2023-03-15T11:08:20;100194.31;;;3.22;96.73
17260;BME280;8746;49.230;9.220;2023-03-15T11:10:54;100189.06;;;3.28;96.54
17260;BME280;8746;49.230;9.220;2023-03-15T11:13:26;100186.31;;;3.50;97.88
17260;BME280;8746;49.230;9.220;2023-03-15T11:21:14;100172.25;;;3.69;96.98
17260;BME280;8746;49.230;9.220;2023-03-15T11:23:45;100174.72;;;3.83;96.53
17260;BME280;8746;49.230;9.220;2023-03-15T11:26:20;100179.97;;;3.82;95.44
17260;BME280;8746;49.230;9.220;2023-03-15T11:29:00;100171.16;;;3.92;94.81
17260;BME280;8746;49.230;9.220;2023-03-15T11:31:29;100178.91;;;4.00;94.72
17260;BME280;8746;49.230;9.220;2023-03-15T11:33:58;100179.59;;;4.22;94.07
17260;BME280;8746;49.230;9.220;2023-03-15T11:36:29;100171.22;;;3.86;92.85
17260;BME280;8746;49.230;9.220;2023-03-15T11:38:58;100169.44;;;3.91;93.10
17260;BME280;8746;49.230;9.220;2023-03-15T11:41:45;100179.81;;;3.97;93.22
17260;BME280;8746;49.230;9.220;2023-03-15T11:44:26;100175.44;;;4.03;91.07
17260;BME280;8746;49.230;9.220;2023-03-15T11:49:52;100179.59;;;4.22;93.12
17260;BME280;8746;49.230;9.220;2023-03-15T11:52:20;100183.28;;;3.99;89.46
17260;BME280;8746;49.230;9.220;2023-03-15T11:54:47;100182.13;;;4.27;90.22
17260;BME280;8746;49.230;9.220;2023-03-15T11:59:54;100175.91;;;4.39;90.62
17260;BME280;8746;49.230;9.220;2023-03-15T12:04:49;100172.44;;;4.40;90.61
17260;BME280;8746;49.230;9.220;2023-03-15T12:18:02;100182.03;;;4.39;90.21
17260;BME280;8746;49.230;9.220;2023-03-15T12:20:35;100182.03;;;4.39;89.12
17260;BME280;8746;49.230;9.220;2023-03-15T12:25:38;100175.88;;;5.70;88.53
17260;BME280;8746;49.230;9.220;2023-03-15T12:28:07;100185.16;;;5.91;85.96
17260;BME280;8746;49.230;9.220;2023-03-15T12:30:41;100184.69;;;5.66;86.85
17260;BME280;8746;49.230;9.220;2023-03-15T12:33:16;100176.59;;;5.23;88.31
17260;BME280;8746;49.230;9.220;2023-03-15T12:35:42;100179.00;;;5.36;87.71
17260;BME280;8746;49.230;9.220;2023-03-15T12:38:15;100174.19;;;5.09;88.23
17260;BME280;8746;49.230;9.220;2023-03-15T12:40:54;100183.19;;;4.87;90.72
17260;BME280;8746;49.230;9.220;2023-03-15T12:43:40;100177.72;;;5.04;90.66
17260;BME280;8746;49.230;9.220;2023-03-15T12:54:53;100181.91;;;4.48;91.15
17260;BME280;8746;49.230;9.220;2023-03-15T12:57:28;100170.69;;;4.42;92.30
17260;BME280;8746;49.230;9.220;2023-03-15T12:59:58;100180.94;;;4.59;92.04
17260;BME280;8746;49.230;9.220;2023-03-15T13:02:33;100177.56;;;4.47;91.22
17260;BME280;8746;49.230;9.220;2023-03-15T13:05:16;100168.72;;;4.59;91.98
17260;BME280;8746;49.230;9.220;2023-03-15T13:10:26;100171.19;;;4.72;90.04
17260;BME280;8746;49.230;9.220;2023-03-15T13:19:03;100180.66;;;4.82;91.10
17260;BME280;8746;49.230;9.220;2023-03-15T13:22:02;100178.47;;;4.45;90.54
17260;BME280;8746;49.230;9.220;2023-03-15T13:27:15;100179.34;;;4.44;92.56
17260;BME280;8746;49.230;9.220;2023-03-15T13:29:47;100169.06;;;4.27;92.61
17260;BME280;8746;49.230;9.220;2023-03-15T13:32:15;100176.94;;;4.25;92.90
17260;BME280;8746;49.230;9.220;2023-03-15T13:34:43;100176.31;;;4.01;94.01
17260;BME280;8746;49.230;9.220;2023-03-15T13:37:23;100184.13;;;4.03;97.84
17260;BME280;8746;49.230;9.220;2023-03-15T13:39:59;100186.03;;;3.84;98.83
17260;BME280;8746;49.230;9.220;2023-03-15T13:42:25;100186.81;;;3.92;100.00
17260;BME280;8746;49.230;9.220;2023-03-15T13:45:21;100199.31;;;3.56;100.00
17260;BME280;8746;49.230;9.220;2023-03-15T13:47:47;100189.09;;;3.24;100.00
17260;BME280;8746;49.230;9.220;2023-03-15T13:50:22;100193.56;;;2.98;100.00
17260;BME280;8746;49.230;9.220;2023-03-15T13:52:47;100200.63;;;2.79;100.00
17260;BME280;8746;49.230;9.220;2023-03-15T13:55:21;100204.03;;;2.87;100.00
17260;BME280;8746;49.230;9.220;2023-03-15T13:57:50;100189.28;;;2.89;100.00
17260;BME280;8746;49.230;9.220;2023-03-15T14:00:18;100199.69;;;2.94;100.00
17260;BME280;8746;49.230;9.220;2023-03-15T14:02:51;100199.53;;;3.19;100.00
17260;BME280;8746;49.230;9.220;2023-03-15T14:05:22;100188.97;;;3.41;100.00
17260;BME280;8746;49.230;9.220;2023-03-15T14:12:47;100173.97;;;4.56;100.00
17260;BME280;8746;49.230;9.220;2023-03-15T14:15:40;100173.28;;;4.42;100.00
17260;BME280;8746;49.230;9.220;2023-03-15T14:18:15;100166.72;;;4.05;97.89
17260;BME280;8746;49.230;9.220;2023-03-15T14:20:50;100163.09;;;4.17;99.98
17260;BME280;8746;49.230;9.220;2023-03-15T14:23:21;100160.97;;;4.52;99.92